Time;durP1;ratioP1;P1;durP2;ratioP2;P2;SDS_P1;SDS_P2;PMS_P1;PMS_P2;Temp;Humidity;BMP_temperature;BMP_pressure;BME280_temperature;BME280_humidity;BME280_pressure;Samples;Min_cycle;Max_cycle;Signal;HPM_P1;HPM_P2
2021/07/09 00:01:53;;;;;;;1.80;0.85;;;;;;;10.59;100.00;100486.38;5072676;28;20059;-56
2021/07/09 00:04:59;;;;;;;1.98;0.80;;;;;;;10.55;100.00;100479.41;5068167;27;20043;-56
2021/07/09 00:08:03;;;;;;;1.08;0.88;;;;;;;10.57;100.00;100483.28;5052789;28;20052;-56
2021/07/09 00:11:06;;;;;;;2.92;1.42;;;;;;;10.54;100.00;100484.22;5054032;28;20048;-56
2021/07/09 00:14:11;;;;;;;4.05;1.20;;;;;;;10.49;100.00;100487.59;5052796;28;20048;-57
2021/07/09 00:17:14;;;;;;;3.03;0.68;;;;;;;10.49;100.00;100486.81;5052959;28;20048;-57
2021/07/09 00:20:18;;;;;;;1.35;0.85;;;;;;;10.57;100.00;100488.84;5052766;28;20052;-57
2021/07/09 00:23:22;;;;;;;3.13;1.17;;;;;;;10.42;100.00;100493.44;5052798;28;20056;-57
2021/07/09 00:26:29;;;;;;;4.47;1.65;;;;;;;10.39;100.00;100491.59;5052075;28;20465;-56
2021/07/09 00:29:33;;;;;;;1.58;0.93;;;;;;;10.47;100.00;100492.84;5052727;28;20048;-57
2021/07/09 00:32:37;;;;;;;2.45;0.93;;;;;;;10.36;100.00;100489.72;5051989;28;20048;-57
2021/07/09 00:35:40;;;;;;;6.63;0.80;;;;;;;10.22;100.00;100495.84;5052581;28;20068;-57
2021/07/09 00:38:44;;;;;;;5.55;1.08;;;;;;;10.31;100.00;100490.31;5051754;28;20067;-56
2021/07/09 00:41:48;;;;;;;4.03;1.33;;;;;;;10.26;100.00;100490.94;5052172;28;20048;-56
2021/07/09 00:44:51;;;;;;;1.52;0.90;;;;;;;10.19;100.00;100485.63;5052018;28;20048;-56
2021/07/09 00:47:55;;;;;;;3.65;0.98;;;;;;;10.21;100.00;100494.28;5052358;28;20477;-57
2021/07/09 00:51:07;;;;;;;5.93;0.85;;;;;;;10.16;100.00;100489.31;5051755;28;20056;-56
2021/07/09 00:54:11;;;;;;;2.22;1.05;;;;;;;10.13;100.00;100489.47;5052128;28;20048;-56
2021/07/09 00:57:14;;;;;;;3.28;1.40;;;;;;;10.14;100.00;100497.34;5051686;28;20044;-56
2021/07/09 01:00:20;;;;;;;1.13;0.75;;;;;;;10.06;100.00;100496.06;5052549;28;20044;-57
2021/07/09 01:03:24;;;;;;;6.00;1.15;;;;;;;10.11;100.00;100495.50;5052189;28;20044;-56
2021/07/09 01:06:28;;;;;;;0.60;0.47;;;;;;;10.14;100.00;100491.78;5053076;28;20047;-56
2021/07/09 01:09:31;;;;;;;1.35;0.98;;;;;;;10.10;100.00;100493.13;5053212;28;20048;-57
2021/07/09 01:12:35;;;;;;;5.05;2.67;;;;;;;10.06;100.00;100498.06;5053484;28;20044;-56
2021/07/09 01:15:39;;;;;;;1.02;0.57;;;;;;;10.18;100.00;100495.19;5053245;28;20040;-57
2021/07/09 01:18:42;;;;;;;2.03;0.80;;;;;;;10.16;100.00;100486.53;5053478;28;20064;-56
2021/07/09 01:21:47;;;;;;;2.47;1.30;;;;;;;10.19;100.00;100493.19;5053072;28;20524;-56
2021/07/09 01:24:51;;;;;;;1.33;0.93;;;;;;;10.08;100.00;100478.88;5053540;28;20390;-56
2021/07/09 01:27:58;;;;;;;1.65;0.90;;;;;;;10.12;100.00;100485.91;5053227;28;20056;-56
2021/07/09 01:31:02;;;;;;;3.13;1.42;;;;;;;10.10;100.00;100480.00;5053110;28;20801;-56
2021/07/09 01:34:07;;;;;;;4.25;1.83;;;;;;;10.07;100.00;100477.34;5052979;28;20071;-57
2021/07/09 01:37:17;;;;;;;4.43;1.05;;;;;;;9.99;100.00;100474.06;5053000;28;20044;-57
2021/07/09 01:40:21;;;;;;;2.80;1.25;;;;;;;9.96;100.00;100475.00;5053084;28;20044;-57
2021/07/09 01:43:25;;;;;;;1.65;0.98;;;;;;;10.03;100.00;100477.47;5052804;28;20052;-57
2021/07/09 01:46:29;;;;;;;3.60;1.27;;;;;;;9.87;100.00;100469.38;5052912;28;20040;-57
2021/07/09 01:49:54;;;;;;;7.00;1.42;;;;;;;9.89;100.00;100478.03;5052838;28;20056;-56
2021/07/09 01:52:58;;;;;;;2.00;0.95;;;;;;;9.87;100.00;100484.03;5053027;28;20044;-57
2021/07/09 01:56:03;;;;;;;0.98;0.60;;;;;;;9.89;100.00;100489.94;5053010;28;20052;-57
2021/07/09 01:59:07;;;;;;;1.63;1.13;;;;;;;9.94;100.00;100480.22;5052871;28;20051;-57
2021/07/09 02:02:11;;;;;;;2.13;1.38;;;;;;;9.87;100.00;100474.94;5052296;28;20044;-56
2021/07/09 02:05:17;;;;;;;3.95;0.70;;;;;;;9.78;100.00;100475.66;5052998;28;20103;-57
2021/07/09 02:08:21;;;;;;;2.42;1.20;;;;;;;9.75;100.00;100468.22;5052255;28;20048;-57
2021/07/09 02:11:24;;;;;;;1.27;1.02;;;;;;;9.73;100.00;100470.69;5051961;28;20052;-56
2021/07/09 02:14:28;;;;;;;3.42;0.93;;;;;;;9.75;100.00;100473.00;5052109;28;20040;-56
2021/07/09 02:17:32;;;;;;;3.58;0.80;;;;;;;9.88;100.00;100468.13;5052550;28;20048;-57
2021/07/09 02:20:36;;;;;;;4.78;0.85;;;;;;;9.77;100.00;100471.31;5052172;28;20048;-57
2021/07/09 02:23:39;;;;;;;1.58;1.25;;;;;;;9.63;100.00;100459.97;5052453;28;20576;-56
2021/07/09 02:26:43;;;;;;;2.28;1.45;;;;;;;9.60;100.00;100453.28;5051978;28;20052;-56
2021/07/09 02:29:48;;;;;;;1.65;0.90;;;;;;;9.58;100.00;100457.75;5052612;28;20063;-56
2021/07/09 02:32:51;;;;;;;3.22;0.77;;;;;;;9.67;100.00;100466.16;5052311;28;20052;-56
2021/07/09 02:35:55;;;;;;;2.47;1.40;;;;;;;9.57;100.00;100456.22;5052399;28;20052;-57
2021/07/09 02:38:58;;;;;;;6.35;1.10;;;;;;;9.48;100.00;100442.25;5051221;28;20043;-57
2021/07/09 02:42:03;;;;;;;2.20;0.85;;;;;;;9.49;100.00;100446.56;5051969;28;20048;-56
2021/07/09 02:45:09;;;;;;;1.23;0.95;;;;;;;9.45;100.00;100443.16;5052418;28;20056;-57
2021/07/09 02:48:13;;;;;;;1.40;1.05;;;;;;;9.39;100.00;100439.41;5052517;28;20052;-56
2021/07/09 02:51:16;;;;;;;1.60;0.60;;;;;;;9.35;100.00;100438.78;5052113;28;20044;-56
2021/07/09 02:54:20;;;;;;;6.03;1.92;;;;;;;9.26;100.00;100433.13;5052312;28;20481;-56
2021/07/09 02:57:24;;;;;;;2.15;0.82;;;;;;;9.26;100.00;100435.91;5051915;28;20493;-56
2021/07/09 03:00:28;;;;;;;3.42;1.27;;;;;;;9.22;100.00;100429.72;5051352;28;20044;-56
2021/07/09 03:03:31;;;;;;;1.88;1.05;;;;;;;9.22;100.00;100430.50;5051610;28;20056;-56
2021/07/09 03:06:35;;;;;;;4.80;1.65;;;;;;;9.18;100.00;100423.53;5052205;28;20063;-56
2021/07/09 03:09:38;;;;;;;1.50;0.60;;;;;;;9.15;100.00;100414.06;5051549;28;20056;-56
2021/07/09 03:12:42;;;;;;;4.50;1.10;;;;;;;9.08;100.00;100408.78;5051626;28;20055;-57
2021/07/09 03:15:46;;;;;;;2.30;0.60;;;;;;;8.98;100.00;100421.06;5053043;28;20531;-57
2021/07/09 03:18:49;;;;;;;1.40;1.13;;;;;;;9.03;100.00;100412.91;5054372;28;20048;-57
2021/07/09 03:21:53;;;;;;;2.53;1.48;;;;;;;9.03;100.00;100415.69;5055084;28;20052;-56
2021/07/09 03:24:56;;;;;;;3.70;1.60;;;;;;;8.98;100.00;100407.16;5054972;28;20071;-56
2021/07/09 03:28:00;;;;;;;0.75;0.68;;;;;;;8.87;100.00;100407.53;5055333;28;20056;-57
2021/07/09 03:31:03;;;;;;;4.28;0.73;;;;;;;8.89;100.00;100410.66;5055131;28;20040;-56
2021/07/09 03:34:07;;;;;;;1.40;1.30;;;;;;;9.02;100.00;100411.38;5055286;28;20052;-56
2021/07/09 03:37:10;;;;;;;2.08;0.52;;;;;;;8.87;100.00;100410.31;5055244;28;20052;-56
2021/07/09 03:40:13;;;;;;;4.40;0.77;;;;;;;8.67;100.00;100404.28;5055335;28;20401;-56
2021/07/09 03:43:17;;;;;;;0.75;0.43;;;;;;;8.64;100.00;100407.19;5054375;28;20040;-56
2021/07/09 03:46:20;;;;;;;2.95;1.17;;;;;;;8.60;100.00;100396.19;5053768;28;20043;-56
2021/07/09 03:49:24;;;;;;;6.32;1.33;;;;;;;8.54;100.00;100403.53;5053563;28;20055;-56
2021/07/09 03:52:27;;;;;;;5.82;1.10;;;;;;;8.67;100.00;100398.72;5053250;28;20036;-56
2021/07/09 03:55:30;;;;;;;1.33;0.82;;;;;;;8.56;100.00;100411.41;5054444;28;20116;-56
2021/07/09 03:58:34;;;;;;;2.88;1.50;;;;;;;8.61;100.00;100414.41;5054551;28;20048;-56
2021/07/09 04:01:38;;;;;;;2.05;0.80;;;;;;;8.70;100.00;100411.72;5055273;28;20047;-56
2021/07/09 04:04:41;;;;;;;2.00;0.88;;;;;;;8.67;100.00;100412.59;5055202;28;20044;-57
2021/07/09 04:07:45;;;;;;;1.90;1.02;;;;;;;8.64;100.00;100412.75;5055149;28;20365;-56
2021/07/09 04:10:49;;;;;;;1.70;0.88;;;;;;;8.66;100.00;100416.63;5054707;28;20048;-56
2021/07/09 04:13:52;;;;;;;1.85;1.10;;;;;;;8.76;100.00;100415.47;5034778;28;20048;-56
2021/07/09 04:16:55;;;;;;;2.00;1.30;;;;;;;8.58;100.00;100418.06;5034952;28;20410;-56
2021/07/09 04:19:59;;;;;;;1.15;0.77;;;;;;;8.57;100.00;100413.75;5034352;28;20056;-56
2021/07/09 04:23:03;;;;;;;3.78;1.25;;;;;;;8.61;100.00;100422.72;5034757;28;20507;-56
2021/07/09 04:26:06;;;;;;;5.05;1.40;;;;;;;8.68;100.00;100413.38;5033819;28;20520;-56
2021/07/09 04:29:10;;;;;;;0.82;0.82;;;;;;;8.79;100.00;100420.09;5034504;28;20406;-56
2021/07/09 04:32:13;;;;;;;1.50;0.80;;;;;;;8.69;100.00;100412.94;5034375;28;20037;-56
2021/07/09 04:35:17;;;;;;;1.65;1.05;;;;;;;8.66;100.00;100424.94;5034236;28;20048;-57
2021/07/09 04:38:20;;;;;;;1.35;0.88;;;;;;;8.68;100.00;100416.94;5034360;28;20052;-57
2021/07/09 04:41:23;;;;;;;1.65;0.65;;;;;;;8.76;100.00;100425.78;5034239;28;20390;-57
2021/07/09 04:44:27;;;;;;;3.70;0.32;;;;;;;8.73;100.00;100421.91;5033712;28;20501;-56
2021/07/09 04:47:30;;;;;;;0.30;0.30;;;;;;;8.73;100.00;100424.69;5034450;28;20040;-56
2021/07/09 04:50:34;;;;;;;1.35;0.50;;;;;;;8.80;100.00;100427.22;5033645;28;20056;-57
2021/07/09 04:53:38;;;;;;;1.60;0.70;;;;;;;8.76;100.00;100429.34;5033140;28;20382;-56
2021/07/09 04:56:42;;;;;;;1.80;0.82;;;;;;;8.76;100.00;100432.13;5033654;28;20052;-57
2021/07/09 04:59:45;;;;;;;1.23;1.13;;;;;;;8.88;100.00;100442.41;5033931;28;20124;-56
2021/07/09 05:02:49;;;;;;;0.70;0.50;;;;;;;8.88;100.00;100442.41;5033409;28;20052;-56
2021/07/09 05:05:52;;;;;;;3.33;1.00;;;;;;;8.94;100.00;100431.50;5033841;28;20056;-56
2021/07/09 05:08:56;;;;;;;0.95;0.75;;;;;;;8.93;100.00;100435.50;5033828;28;20056;-57
2021/07/09 05:11:59;;;;;;;11.02;0.80;;;;;;;9.02;100.00;100444.69;5039765;28;20048;-56
2021/07/09 05:15:03;;;;;;;0.98;0.88;;;;;;;9.05;100.00;100443.03;5053494;28;20044;-56
2021/07/09 05:18:07;;;;;;;0.77;0.77;;;;;;;9.03;100.00;100451.78;5053783;28;20056;-56
2021/07/09 05:21:10;;;;;;;2.38;0.50;;;;;;;9.01;100.00;100454.25;5053115;28;20378;-56
2021/07/09 05:24:14;;;;;;;2.05;1.05;;;;;;;9.03;100.00;100457.34;5053151;28;20476;-56
2021/07/09 05:27:17;;;;;;;3.80;1.13;;;;;;;9.00;100.00;100451.94;5052999;28;20055;-57
2021/07/09 05:30:20;;;;;;;1.58;1.02;;;;;;;8.99;100.00;100456.72;5053480;28;20107;-56
2021/07/09 05:33:24;;;;;;;1.02;0.50;;;;;;;9.00;100.00;100458.28;5052741;28;20397;-56
2021/07/09 05:36:28;;;;;;;1.33;0.93;;;;;;;9.09;100.00;100454.78;5053165;28;20047;-56
2021/07/09 05:39:31;;;;;;;0.73;0.73;;;;;;;9.11;100.00;100452.34;5052210;28;20048;-56
2021/07/09 05:42:35;;;;;;;0.93;0.93;;;;;;;9.06;100.00;100450.91;5052379;28;20044;-55
2021/07/09 05:45:40;;;;;;;3.22;1.05;;;;;;;9.21;100.00;100444.81;5052425;28;20044;-56
2021/07/09 05:48:43;;;;;;;0.80;0.80;;;;;;;9.18;100.00;100456.88;5052929;28;20051;-56
2021/07/09 05:51:47;;;;;;;0.80;0.80;;;;;;;9.25;100.00;100457.38;5052604;28;20052;-55
2021/07/09 05:54:50;;;;;;;0.65;0.65;;;;;;;9.23;100.00;100459.03;5052844;28;20409;-55
2021/07/09 05:57:54;;;;;;;0.95;0.85;;;;;;;9.21;100.00;100456.72;5052701;28;20055;-55
2021/07/09 06:00:57;;;;;;;1.02;0.65;;;;;;;9.22;100.00;100449.19;5053105;28;20052;-56
2021/07/09 06:04:01;;;;;;;1.70;1.27;;;;;;;9.33;100.00;100452.34;5052627;28;20052;-55
2021/07/09 06:07:04;;;;;;;3.92;0.88;;;;;;;9.35;100.00;100450.66;5053039;28;20390;-56
2021/07/09 06:10:09;;;;;;;2.10;0.90;;;;;;;9.56;100.00;100449.88;5052806;28;20108;-55
2021/07/09 06:13:13;;;;;;;5.53;1.13;;;;;;;9.76;100.00;100446.75;5052943;28;20060;-55
2021/07/09 06:16:16;;;;;;;3.30;0.98;;;;;;;9.91;100.00;100456.09;5052911;28;20048;-56
2021/07/09 06:19:19;;;;;;;3.35;1.33;;;;;;;10.10;100.00;100452.16;5052309;28;20064;-55
2021/07/09 06:22:23;;;;;;;4.15;0.90;;;;;;;10.27;100.00;100452.72;5052275;28;20052;-55
2021/07/09 06:25:26;;;;;;;1.77;0.55;;;;;;;10.54;100.00;100456.38;5052356;28;20060;-56
2021/07/09 06:28:30;;;;;;;0.77;0.73;;;;;;;10.81;100.00;100447.25;5051849;28;20055;-55
2021/07/09 06:31:33;;;;;;;3.08;1.70;;;;;;;10.97;100.00;100454.56;5052347;28;20044;-55
2021/07/09 06:34:37;;;;;;;4.85;1.35;;;;;;;11.34;100.00;100456.09;5052335;28;20044;-55
2021/07/09 06:37:40;;;;;;;2.00;0.75;;;;;;;11.57;100.00;100455.44;5051289;28;20083;-55
2021/07/09 06:40:45;;;;;;;3.60;1.27;;;;;;;11.71;100.00;100452.06;5052296;28;20489;-55
2021/07/09 06:43:49;;;;;;;5.18;0.85;;;;;;;11.96;100.00;100446.06;5052010;28;20052;-55
2021/07/09 06:46:53;;;;;;;3.45;1.67;;;;;;;12.06;100.00;100455.19;5052586;28;20072;-55
2021/07/09 06:49:56;;;;;;;4.57;1.77;;;;;;;12.28;100.00;100444.53;5054211;28;20051;-56
2021/07/09 06:52:59;;;;;;;4.00;1.08;;;;;;;12.47;100.00;100440.44;5056036;28;20040;-55
2021/07/09 06:56:04;;;;;;;5.07;1.05;;;;;;;12.77;100.00;100446.91;5055542;28;20091;-55
2021/07/09 06:59:08;;;;;;;3.45;0.95;;;;;;;12.77;100.00;100442.09;5056339;28;20056;-55
2021/07/09 07:02:14;;;;;;;3.80;1.23;;;;;;;12.90;100.00;100445.41;5055958;28;20048;-55
2021/07/09 07:05:19;;;;;;;4.60;1.52;;;;;;;13.00;100.00;100443.31;5056068;28;20036;-56
2021/07/09 07:08:26;;;;;;;3.92;1.17;;;;;;;13.12;100.00;100445.13;5055607;28;20056;-55
2021/07/09 07:11:29;;;;;;;3.60;0.90;;;;;;;13.25;100.00;100447.66;5055444;28;20047;-55
2021/07/09 07:14:35;;;;;;;5.35;1.60;;;;;;;13.25;100.00;100448.44;5055370;28;20500;-55
2021/07/09 07:17:38;;;;;;;5.40;1.00;;;;;;;13.37;100.00;100450.19;5055790;28;20052;-55
2021/07/09 07:20:45;;;;;;;3.55;1.25;;;;;;;13.63;100.00;100462.34;5055294;28;20052;-55
2021/07/09 07:23:48;;;;;;;4.32;1.13;;;;;;;13.65;100.00;100454.25;5055888;28;20048;-55
2021/07/09 07:26:51;;;;;;;5.50;1.73;;;;;;;13.88;100.00;100446.25;5055517;28;20386;-55
2021/07/09 07:29:58;;;;;;;0.95;0.40;;;;;;;14.05;100.00;100452.88;5055600;28;20052;-55
2021/07/09 07:33:02;;;;;;;6.20;0.93;;;;;;;14.12;100.00;100452.50;5054985;28;20052;-55
2021/07/09 07:36:06;;;;;;;7.18;0.90;;;;;;;14.42;100.00;100454.00;5054461;28;20063;-55
2021/07/09 07:39:10;;;;;;;4.00;1.33;;;;;;;14.56;100.00;100458.78;5054398;28;20092;-55
2021/07/09 07:42:14;;;;;;;5.45;1.52;;;;;;;14.78;100.00;100459.09;5053514;28;20051;-55
2021/07/09 07:45:17;;;;;;;4.30;1.27;;;;;;;15.06;100.00;100456.63;5054363;28;20040;-55
2021/07/09 07:48:21;;;;;;;1.80;1.08;;;;;;;15.30;100.00;100450.78;5054661;28;20071;-55
2021/07/09 07:51:25;;;;;;;3.97;1.05;;;;;;;15.53;100.00;100458.19;5055420;28;20059;-55
2021/07/09 07:54:29;;;;;;;3.78;0.70;;;;;;;15.79;100.00;100453.34;5055297;28;20064;-55
2021/07/09 07:57:32;;;;;;;3.20;1.08;;;;;;;15.81;100.00;100453.63;5054917;28;20048;-55
2021/07/09 08:00:36;;;;;;;2.13;0.50;;;;;;;15.97;100.00;100455.81;5054153;28;20044;-55
2021/07/09 08:03:39;;;;;;;2.47;0.75;;;;;;;16.20;100.00;100449.09;5055277;28;20052;-55
2021/07/09 08:06:43;;;;;;;4.53;1.02;;;;;;;16.48;100.00;100447.22;5054449;28;20055;-55
2021/07/09 08:09:46;;;;;;;1.58;0.52;;;;;;;16.65;100.00;100442.50;5034734;28;20060;-55
2021/07/09 08:12:49;;;;;;;1.23;0.88;;;;;;;16.85;100.00;100435.19;5047580;28;20069;-55
2021/07/09 08:15:53;;;;;;;7.00;1.48;;;;;;;16.93;100.00;100431.41;5054266;28;20051;-55
2021/07/09 08:18:57;;;;;;;3.20;0.90;;;;;;;17.06;100.00;100425.31;5054531;28;20048;-55
2021/07/09 08:22:00;;;;;;;7.15;1.35;;;;;;;17.19;100.00;100436.88;5054142;28;20068;-55
2021/07/09 08:25:08;;;;;;;1.40;0.35;;;;;;;17.30;100.00;100434.09;5054357;28;20044;-55
2021/07/09 08:28:16;;;;;;;1.70;0.45;;;;;;;17.57;100.00;100427.75;5034394;28;20052;-55
2021/07/09 08:31:19;;;;;;;2.50;0.55;;;;;;;17.82;100.00;100423.94;5034337;28;20048;-56
2021/07/09 08:34:23;;;;;;;7.88;0.98;;;;;;;18.13;100.00;100426.50;5034894;28;20041;-53
2021/07/09 08:37:26;;;;;;;0.77;0.47;;;;;;;18.27;100.00;100429.53;5034185;28;20135;-53
2021/07/09 08:40:29;;;;;;;1.77;0.60;;;;;;;18.32;100.00;100420.31;5034466;28;20056;-53
2021/07/09 08:43:33;;;;;;;1.10;0.40;;;;;;;18.42;100.00;100425.16;5034582;28;20056;-53
2021/07/09 08:46:37;;;;;;;0.57;0.28;;;;;;;18.60;100.00;100423.88;5046093;28;20056;-53
2021/07/09 08:49:42;;;;;;;2.05;0.50;;;;;;;18.64;100.00;100413.09;5053738;28;20044;-53
2021/07/09 08:52:45;;;;;;;1.55;0.20;;;;;;;18.77;100.00;100416.13;5052498;28;20409;-53
2021/07/09 08:55:49;;;;;;;1.40;0.80;;;;;;;18.93;100.00;100407.59;5053994;28;20068;-53
2021/07/09 08:58:52;;;;;;;0.90;0.30;;;;;;;18.97;100.00;100412.97;5053908;28;20389;-53
2021/07/09 09:02:01;;;;;;;5.15;0.75;;;;;;;19.11;100.00;100405.44;5053640;28;20532;-53
2021/07/09 09:05:06;;;;;;;1.75;0.60;;;;;;;19.19;100.00;100412.09;5053792;28;20048;-53
2021/07/09 09:08:11;;;;;;;0.85;0.30;;;;;;;19.38;100.00;100413.03;5053477;28;20439;-53
2021/07/09 09:11:15;;;;;;;1.67;0.32;;;;;;;19.51;100.00;100405.47;5053107;28;20055;-53
2021/07/09 09:14:22;;;;;;;2.03;0.45;;;;;;;19.52;100.00;100404.19;5033783;28;20500;-53
2021/07/09 09:17:37;;;;;;;1.00;0.20;;;;;;;19.72;100.00;100402.25;5033967;28;20052;-54
2021/07/09 09:20:40;;;;;;;0.85;0.35;;;;;;;19.73;100.00;100403.81;5033071;28;20517;-54
2021/07/09 09:23:54;;;;;;;1.33;0.30;;;;;;;19.73;100.00;100403.81;5033617;28;20064;-54
2021/07/09 09:26:58;;;;;;;1.08;0.28;;;;;;;19.62;100.00;100405.41;5033252;28;20056;-53
2021/07/09 09:30:14;;;;;;;2.05;0.30;;;;;;;19.59;100.00;100398.00;5033053;28;20509;-54
2021/07/09 09:33:18;;;;;;;2.08;0.55;;;;;;;19.81;100.00;100399.09;5033028;28;20068;-53
2021/07/09 09:36:21;;;;;;;1.00;0.47;;;;;;;19.90;100.00;100402.38;5033157;28;20509;-53
2021/07/09 09:39:25;;;;;;;0.98;0.30;;;;;;;20.02;100.00;100400.97;5032900;28;20048;-54
2021/07/09 09:42:31;;;;;;;1.83;0.60;;;;;;;20.11;100.00;100402.69;5032926;28;20048;-53
2021/07/09 09:45:35;;;;;;;1.65;0.30;;;;;;;20.15;100.00;100397.50;5032712;28;20060;-54
2021/07/09 09:48:47;;;;;;;1.35;0.40;;;;;;;20.15;100.00;100397.50;5033065;28;20406;-54
2021/07/09 09:51:51;;;;;;;2.25;0.60;;;;;;;19.99;100.00;100401.28;5032941;28;20048;-54
2021/07/09 09:54:54;;;;;;;0.22;0.08;;;;;;;19.98;100.00;100396.91;5032803;28;20048;-54
2021/07/09 09:58:16;;;;;;;1.33;0.30;;;;;;;19.93;100.00;100375.84;5032991;28;20060;-54
2021/07/09 10:01:30;;;;;;;0.73;0.40;;;;;;;20.01;100.00;100379.63;5032976;28;20051;-54
2021/07/09 10:04:34;;;;;;;0.77;0.10;;;;;;;20.17;100.00;100375.13;5031540;28;20064;-54
2021/07/09 10:07:38;;;;;;;0.47;0.10;;;;;;;20.40;100.00;100374.38;5032475;28;20044;-54
2021/07/09 10:10:43;;;;;;;1.58;0.20;;;;;;;20.48;100.00;100371.72;5032493;28;20116;-53
2021/07/09 10:13:49;;;;;;;1.67;0.10;;;;;;;20.57;100.00;100371.38;5032405;28;20045;-54
2021/07/09 10:16:58;;;;;;;1.42;0.25;;;;;;;20.75;100.00;100370.63;5032532;28;20048;-54
2021/07/09 10:20:03;;;;;;;1.55;0.13;;;;;;;20.81;100.00;100371.31;5032714;28;20060;-54
2021/07/09 10:23:08;;;;;;;1.95;0.10;;;;;;;20.84;100.00;100370.25;5032924;28;20112;-54
2021/07/09 10:26:11;;;;;;;1.45;0.40;;;;;;;20.89;100.00;100372.25;5032582;28;20048;-54
2021/07/09 10:29:20;;;;;;;0.55;0.20;;;;;;;21.00;100.00;100372.09;5032579;28;20048;-54
2021/07/09 10:32:38;;;;;;;1.83;0.68;;;;;;;21.19;100.00;100371.34;5032397;28;20049;-54
2021/07/09 10:35:42;;;;;;;1.05;0.40;;;;;;;21.41;100.00;100357.63;5031960;28;20378;-54
2021/07/09 10:38:54;;;;;;;0.10;0.00;;;;;;;21.51;100.00;100357.97;5032075;28;20398;-54
2021/07/09 10:42:40;;;;;;;2.50;0.15;;;;;;;21.32;100.00;100362.91;5031874;28;20064;-54
2021/07/09 10:45:44;;;;;;;4.60;0.55;;;;;;;21.56;100.00;100365.66;5031673;28;20056;-54
2021/07/09 10:48:47;;;;;;;1.00;0.32;;;;;;;21.62;100.00;100364.25;5032212;28;20052;-54
2021/07/09 10:51:53;;;;;;;2.60;0.30;;;;;;;21.64;100.00;100361.63;5032137;28;20068;-54
2021/07/09 10:54:57;;;;;;;0.98;0.00;;;;;;;21.36;100.00;100369.03;5032364;28;20048;-54
2021/07/09 10:58:09;;;;;;;1.67;0.20;;;;;;;21.14;100.00;100367.28;5032270;28;20048;-54
2021/07/09 11:01:17;;;;;;;0.35;0.20;;;;;;;20.88;100.00;100364.28;5031769;28;20508;-54
2021/07/09 11:04:36;;;;;;;1.58;0.40;;;;;;;20.64;100.00;100356.59;5031990;28;20044;-54
2021/07/09 11:07:40;;;;;;;0.95;0.20;;;;;;;20.67;100.00;100349.88;5032018;28;20064;-54
2021/07/09 11:10:56;;;;;;;2.03;0.35;;;;;;;20.81;100.00;100345.09;5032273;28;20053;-54
2021/07/09 11:14:02;;;;;;;3.35;0.80;;;;;;;20.87;100.00;100346.53;5032174;28;20041;-54
2021/07/09 11:17:21;;;;;;;1.88;0.30;;;;;;;20.86;100.00;100347.06;5032206;28;20049;-54
2021/07/09 11:20:31;;;;;;;2.17;0.73;;;;;;;20.84;100.00;100358.94;5031806;28;20064;-54
2021/07/09 11:23:35;;;;;;;1.42;0.85;;;;;;;20.79;100.00;100354.09;5031773;28;20056;-54
2021/07/09 11:26:40;;;;;;;1.02;0.20;;;;;;;20.86;100.00;100349.88;5031354;28;20072;-54
2021/07/09 11:29:45;;;;;;;1.10;0.30;;;;;;;20.97;100.00;100359.00;5031694;28;20065;-54
2021/07/09 11:32:48;;;;;;;1.05;0.22;;;;;;;21.06;100.00;100358.66;5031416;28;20053;-54
2021/07/09 11:35:52;;;;;;;1.92;0.38;;;;;;;21.10;100.00;100353.44;5031744;28;20048;-54
2021/07/09 11:39:09;;;;;;;2.90;0.73;;;;;;;20.98;100.00;100346.41;5035187;28;20402;-53
2021/07/09 11:42:22;;;;;;;1.23;0.43;;;;;;;21.07;100.00;100343.19;5035376;28;20056;-53
2021/07/09 11:45:29;;;;;;;1.98;0.95;;;;;;;21.22;100.00;100336.28;5034981;28;20409;-54
2021/07/09 11:48:33;;;;;;;1.50;0.40;;;;;;;21.24;100.00;100339.34;5035097;28;20052;-54
2021/07/09 11:51:36;;;;;;;0.90;0.20;;;;;;;21.43;100.00;100342.91;5034281;28;20052;-54
2021/07/09 11:54:45;;;;;;;1.75;0.15;;;;;;;21.35;100.00;100336.34;5033515;28;20394;-54
2021/07/09 11:57:49;;;;;;;1.05;0.30;;;;;;;21.19;100.00;100343.78;5035091;28;20052;-54
2021/07/09 12:00:54;;;;;;;0.77;0.22;;;;;;;21.00;100.00;100338.13;5034273;28;20075;-54
2021/07/09 12:03:58;;;;;;;1.05;0.10;;;;;;;20.98;100.00;100343.56;5035152;28;20049;-54
2021/07/09 12:07:17;;;;;;;0.85;0.10;;;;;;;20.93;100.00;100344.41;5035185;28;20068;-54
2021/07/09 12:10:28;;;;;;;0.82;0.10;;;;;;;20.87;100.00;100340.88;5034952;28;20573;-54
2021/07/09 12:13:31;;;;;;;1.10;0.32;;;;;;;20.87;100.00;100340.09;5052826;28;20043;-54
2021/07/09 12:16:34;;;;;;;0.95;0.32;;;;;;;20.92;100.00;100333.63;5054649;28;20052;-54
2021/07/09 12:20:20;;;;;;;2.03;0.50;;;;;;;21.00;100.00;100332.47;5053652;28;20068;-54
2021/07/09 12:23:26;;;;;;;6.60;0.30;;;;;;;21.04;100.00;100332.94;5054582;28;20047;-54
2021/07/09 12:26:30;;;;;;;0.75;0.40;;;;;;;20.93;100.00;100333.06;5054105;28;20064;-54
2021/07/09 12:29:34;;;;;;;0.63;0.20;;;;;;;20.81;100.00;100333.75;5054502;28;20052;-54
2021/07/09 12:33:02;;;;;;;1.38;0.52;;;;;;;20.56;100.00;100333.03;5054134;28;20448;-54
2021/07/09 12:36:07;;;;;;;1.23;0.30;;;;;;;20.10;100.00;100336.09;5054196;28;20044;-54
2021/07/09 12:39:11;;;;;;;0.95;0.30;;;;;;;19.71;100.00;100327.25;5053794;28;20398;-55
2021/07/09 12:42:19;;;;;;;12.55;0.60;;;;;;;19.33;100.00;100327.00;5053931;28;20040;-55
2021/07/09 12:45:32;;;;;;;0.35;0.10;;;;;;;18.98;100.00;100332.63;5053680;28;20482;-55
2021/07/09 12:48:41;;;;;;;0.80;0.40;;;;;;;18.71;100.00;100327.91;5064247;28;20248;-54
2021/07/09 12:51:45;;;;;;;2.92;0.55;;;;;;;18.50;100.00;100329.53;5053671;28;20048;-54
2021/07/09 12:54:48;;;;;;;1.20;0.55;;;;;;;18.73;100.00;100328.91;5051342;28;20044;-55
2021/07/09 12:57:52;;;;;;;5.53;0.60;;;;;;;19.04;100.00;100327.72;5050028;28;20055;-54
2021/07/09 13:01:05;;;;;;;1.20;0.32;;;;;;;19.35;100.00;100329.31;5041913;28;20433;-54
2021/07/09 13:04:32;;;;;;;2.08;0.60;;;;;;;19.38;100.00;100328.28;5053550;28;20059;-54
2021/07/09 13:07:38;;;;;;;3.50;0.63;;;;;;;19.35;100.00;100324.44;5053308;28;20052;-55
2021/07/09 13:10:41;;;;;;;4.65;1.33;;;;;;;19.39;100.00;100319.28;5053459;28;20048;-54
2021/07/09 13:13:56;;;;;;;1.95;0.40;;;;;;;19.88;100.00;100316.56;5034004;28;20068;-55
2021/07/09 13:17:01;;;;;;;4.25;0.82;;;;;;;20.40;100.00;100314.97;5033723;28;20072;-55
2021/07/09 13:20:05;;;;;;;1.30;0.45;;;;;;;20.98;100.00;100303.91;5033593;28;20068;-55
2021/07/09 13:23:13;;;;;;;4.70;1.20;;;;;;;21.41;100.00;100309.47;5033269;28;20049;-55
2021/07/09 13:26:24;;;;;;;2.45;1.00;;;;;;;21.66;100.00;100301.56;5032630;28;20048;-55
2021/07/09 13:29:30;;;;;;;2.38;0.75;;;;;;;21.71;100.00;100303.53;5032123;28;20048;-54
2021/07/09 13:32:38;;;;;;;3.03;0.50;;;;;;;21.84;100.00;100300.75;5039905;28;20056;-55
2021/07/09 13:35:49;;;;;;;1.20;0.43;;;;;;;21.89;100.00;100297.06;5053055;28;20382;-55
2021/07/09 13:38:54;;;;;;;3.33;0.70;;;;;;;22.22;100.00;100296.41;5041277;28;20509;-50
2021/07/09 13:41:58;;;;;;;0.98;0.45;;;;;;;22.38;100.00;100292.47;5052516;28;20044;-50
2021/07/09 13:45:03;;;;;;;3.45;0.60;;;;;;;22.26;100.00;100285.50;5051932;28;20051;-50
2021/07/09 13:48:07;;;;;;;2.72;0.60;;;;;;;22.23;100.00;100292.28;5049170;28;20052;-51
2021/07/09 13:51:14;;;;;;;2.55;0.80;;;;;;;22.40;100.00;100287.03;5052906;28;20096;-50
2021/07/09 13:54:17;;;;;;;3.45;0.93;;;;;;;22.39;100.00;100285.47;5033305;28;20048;-51
2021/07/09 13:57:22;;;;;;;2.80;0.65;;;;;;;22.44;100.00;100278.16;5041205;28;20099;-50
2021/07/09 14:00:25;;;;;;;1.67;0.90;;;;;;;22.26;100.00;100271.31;5051617;28;20378;-51
2021/07/09 14:03:29;;;;;;;7.78;1.08;;;;;;;22.26;100.00;100274.13;5052604;28;20052;-50
2021/07/09 14:06:32;;;;;;;1.92;0.90;;;;;;;22.23;100.00;100269.56;5052749;28;20390;-50
2021/07/09 14:09:36;;;;;;;4.03;0.88;;;;;;;22.40;100.00;100264.31;5050784;28;20060;-50
2021/07/09 14:12:39;;;;;;;1.35;0.50;;;;;;;22.69;100.00;100267.34;5051897;28;20044;-54
2021/07/09 14:15:43;;;;;;;1.85;0.60;;;;;;;22.63;100.00;100261.03;5050500;28;20677;-55